createdAt,value
2023-05-09T00:01:31.727Z,24.20
2023-05-09T00:03:59.787Z,26.10
2023-05-09T00:06:27.843Z,27.23
2023-05-09T00:08:56.037Z,31.15
2023-05-09T00:11:23.828Z,28.17
2023-05-09T00:13:52.106Z,29.13
2023-05-09T00:16:20.700Z,29.10
2023-05-09T00:18:48.408Z,25.20
2023-05-09T00:21:15.674Z,30.33
2023-05-09T00:23:43.292Z,30.00
2023-05-09T00:26:10.974Z,23.77
2023-05-09T00:28:41.093Z,29.30
2023-05-09T00:31:08.094Z,30.40
2023-05-09T00:33:35.809Z,27.95
2023-05-09T00:36:02.733Z,27.75
2023-05-09T00:38:30.193Z,27.73
2023-05-09T00:40:57.359Z,24.75
2023-05-09T00:43:24.808Z,31.02
2023-05-09T00:45:51.941Z,26.92
2023-05-09T00:48:19.702Z,23.95
2023-05-09T00:50:49.070Z,21.60
2023-05-09T00:53:16.275Z,29.33
2023-05-09T00:55:43.467Z,26.75
2023-05-09T00:58:11.403Z,25.27
2023-05-09T01:00:38.320Z,27.33
2023-05-09T01:03:06.408Z,29.60
2023-05-09T01:05:44.187Z,28.63
2023-05-09T01:08:41.820Z,28.05
2023-05-09T01:11:13.501Z,26.45
2023-05-09T01:13:49.884Z,31.95
2023-05-09T01:16:27.946Z,28.65
2023-05-09T01:19:20.483Z,30.45
2023-05-09T01:24:40.429Z,26.98
2023-05-09T01:27:21.464Z,24.95
2023-05-09T01:29:54.962Z,28.60
2023-05-09T01:32:28.090Z,28.05
2023-05-09T01:34:59.521Z,28.38
2023-05-09T01:37:31.679Z,31.30
2023-05-09T01:40:06.874Z,31.70
2023-05-09T01:42:41.835Z,27.58
2023-05-09T01:45:11.272Z,25.45
2023-05-09T01:47:40.766Z,26.75
2023-05-09T01:50:10.985Z,30.60
2023-05-09T01:52:40.196Z,28.02
2023-05-09T01:55:08.865Z,28.95
2023-05-09T01:57:36.718Z,30.88
2023-05-09T02:00:08.021Z,27.15
2023-05-09T02:02:40.542Z,30.83
2023-05-09T02:05:10.696Z,32.95
2023-05-09T02:07:39.585Z,29.23
2023-05-09T02:10:09.214Z,27.13
2023-05-09T02:12:38.306Z,31.45
2023-05-09T02:15:06.845Z,29.60
2023-05-09T02:17:35.065Z,33.20
2023-05-09T02:20:02.251Z,28.80
2023-05-09T02:22:29.260Z,29.55
2023-05-09T02:24:57.050Z,27.30
2023-05-09T02:27:24.873Z,34.65
2023-05-09T02:29:57.580Z,32.33
2023-05-09T02:32:29.338Z,27.20
2023-05-09T02:34:59.057Z,30.60
2023-05-09T02:37:27.009Z,29.27
2023-05-09T02:39:55.337Z,24.80
2023-05-09T02:42:25.554Z,28.00
2023-05-09T02:44:53.918Z,26.88
2023-05-09T02:47:22.284Z,29.70
2023-05-09T02:49:49.862Z,29.38
2023-05-09T02:52:17.157Z,32.80
2023-05-09T02:54:45.009Z,28.38
2023-05-09T02:57:12.725Z,30.73
2023-05-09T02:59:39.871Z,29.35
2023-05-09T03:02:07.161Z,31.77
2023-05-09T03:04:34.435Z,32.58
2023-05-09T03:07:02.083Z,30.33
2023-05-09T03:09:32.662Z,34.13
2023-05-09T03:12:00.970Z,33.33
2023-05-09T03:14:28.325Z,32.42
2023-05-09T03:16:55.471Z,30.23
2023-05-09T03:19:28.727Z,27.00
2023-05-09T03:21:56.131Z,27.48
2023-05-09T03:24:26.728Z,31.77
2023-05-09T03:26:54.482Z,31.80
2023-05-09T03:29:22.617Z,30.80
2023-05-09T03:31:49.590Z,34.22
2023-05-09T03:34:17.366Z,30.00
2023-05-09T03:36:44.928Z,32.42
2023-05-09T03:39:14.552Z,30.83
2023-05-09T03:41:44.713Z,31.13
2023-05-09T03:44:12.528Z,31.25
2023-05-09T03:46:40.039Z,35.47
2023-05-09T03:49:07.460Z,26.00
2023-05-09T03:51:35.785Z,31.95
2023-05-09T03:54:05.810Z,28.08
2023-05-09T03:56:33.305Z,31.77
2023-05-09T03:59:01.132Z,29.70
2023-05-09T04:01:29.155Z,35.35
2023-05-09T04:03:58.460Z,30.70
2023-05-09T04:06:27.113Z,28.08
2023-05-09T04:08:54.547Z,25.95
2023-05-09T04:11:21.815Z,26.45
2023-05-09T04:13:49.913Z,30.02
2023-05-09T04:16:30.887Z,22.60
2023-05-09T04:18:58.901Z,30.30
2023-05-09T04:21:26.376Z,29.08
2023-05-09T04:23:56.727Z,32.03
2023-05-09T04:26:31.670Z,22.52
2023-05-09T04:29:00.440Z,22.10
2023-05-09T04:31:29.294Z,20.95
2023-05-09T04:33:58.536Z,26.70
2023-05-09T04:36:27.799Z,28.20
2023-05-09T04:38:57.688Z,26.02
2023-05-09T04:41:27.748Z,25.30
2023-05-09T04:43:54.898Z,22.50
2023-05-09T04:46:25.715Z,23.90
2023-05-09T04:48:53.880Z,25.25
2023-05-09T04:51:21.518Z,23.35
2023-05-09T04:53:48.628Z,25.15
2023-05-09T04:56:19.088Z,19.40
2023-05-09T04:58:47.569Z,20.13
2023-05-09T05:01:16.946Z,20.63
2023-05-09T05:03:44.755Z,19.83
2023-05-09T05:06:12.827Z,24.38
2023-05-09T05:08:42.156Z,27.80
2023-05-09T05:11:10.200Z,27.95
2023-05-09T05:13:37.307Z,16.38
2023-05-09T05:16:05.403Z,15.90
2023-05-09T05:18:33.072Z,22.92
2023-05-09T05:21:00.717Z,18.83
2023-05-09T05:23:27.755Z,18.80
2023-05-09T05:25:56.182Z,18.67
2023-05-09T05:28:23.663Z,14.52
2023-05-09T05:30:51.607Z,21.35
2023-05-09T05:33:18.923Z,18.40
2023-05-09T05:35:46.771Z,13.63
2023-05-09T05:38:13.986Z,14.63
2023-05-09T05:40:41.897Z,16.92
2023-05-09T05:43:08.960Z,16.55
2023-05-09T05:45:38.608Z,15.95
2023-05-09T05:48:08.396Z,20.85
2023-05-09T05:50:36.816Z,14.27
2023-05-09T05:53:05.286Z,14.13
2023-05-09T05:55:33.620Z,17.58
2023-05-09T05:58:01.580Z,16.50
2023-05-09T06:00:30.002Z,14.15
2023-05-09T06:03:04.030Z,19.48
2023-05-09T06:08:23.140Z,15.75
2023-05-09T06:10:51.007Z,17.73
2023-05-09T06:13:18.349Z,15.88
2023-05-09T06:15:51.089Z,21.35
2023-05-09T06:18:18.505Z,20.88
2023-05-09T06:20:46.285Z,10.88
2023-05-09T06:23:14.221Z,13.73
2023-05-09T06:25:41.650Z,18.02
2023-05-09T06:28:09.602Z,24.38
2023-05-09T06:30:36.750Z,15.25
2023-05-09T06:33:03.812Z,18.17
2023-05-09T06:35:31.057Z,11.65
2023-05-09T06:37:57.994Z,10.13
2023-05-09T06:40:25.074Z,14.23
2023-05-09T06:42:52.322Z,11.68
2023-05-09T06:45:20.688Z,12.25
2023-05-09T06:47:48.151Z,11.32
2023-05-09T06:50:15.319Z,8.55
2023-05-09T06:52:42.548Z,12.65
2023-05-09T06:55:10.540Z,6.07
2023-05-09T06:57:40.170Z,6.80
2023-05-09T07:00:08.107Z,11.32
2023-05-09T07:02:35.509Z,9.18
2023-05-09T07:05:03.567Z,11.70
2023-05-09T07:07:30.859Z,5.72
2023-05-09T07:10:10.601Z,8.10
2023-05-09T07:12:39.701Z,7.85
2023-05-09T07:15:08.236Z,9.48
2023-05-09T07:17:35.762Z,8.93
2023-05-09T07:20:04.922Z,8.15
2023-05-09T07:22:34.110Z,7.13
2023-05-09T07:25:03.499Z,4.80
2023-05-09T07:27:31.242Z,11.10
2023-05-09T07:29:58.573Z,6.80
2023-05-09T07:32:28.783Z,6.47
2023-05-09T07:34:56.503Z,5.73
2023-05-09T07:37:23.672Z,3.78
2023-05-09T07:39:51.961Z,3.90
2023-05-09T07:42:18.983Z,5.20
2023-05-09T07:44:46.650Z,5.10
2023-05-09T07:47:14.152Z,4.78
2023-05-09T07:49:43.411Z,8.02
2023-05-09T07:52:10.698Z,3.80
2023-05-09T07:54:37.778Z,8.68
2023-05-09T07:57:05.276Z,6.03
2023-05-09T07:59:32.727Z,4.57
2023-05-09T08:01:59.672Z,5.82
2023-05-09T08:04:27.160Z,7.70
2023-05-09T08:06:54.287Z,6.93
2023-05-09T08:09:22.070Z,3.83
2023-05-09T08:11:49.288Z,2.05
2023-05-09T08:14:16.719Z,7.90
2023-05-09T08:16:43.615Z,3.78
2023-05-09T08:19:11.071Z,4.50
2023-05-09T08:21:37.957Z,5.65
2023-05-09T08:24:08.110Z,6.60
2023-05-09T08:26:35.812Z,6.63
2023-05-09T08:29:04.560Z,4.95
2023-05-09T08:31:31.638Z,3.28
2023-05-09T08:33:58.745Z,5.03
2023-05-09T08:36:25.706Z,6.88
2023-05-09T08:38:53.699Z,5.95
2023-05-09T08:41:28.059Z,3.30
2023-05-09T08:43:56.116Z,3.90
2023-05-09T08:46:28.661Z,5.13
2023-05-09T08:48:57.335Z,6.60
2023-05-09T08:51:24.866Z,3.78
2023-05-09T08:53:52.661Z,6.95
2023-05-09T08:56:20.099Z,3.67
2023-05-09T08:58:47.427Z,4.65
2023-05-09T09:01:14.425Z,9.73
2023-05-09T09:03:47.651Z,4.53
2023-05-09T09:06:16.890Z,2.63
2023-05-09T09:08:46.012Z,2.42
2023-05-09T09:11:17.545Z,4.55
2023-05-09T09:13:46.831Z,4.97
2023-05-09T09:16:21.133Z,6.15
2023-05-09T09:18:51.808Z,5.28
2023-05-09T09:21:20.426Z,5.50
2023-05-09T09:23:49.942Z,3.13
2023-05-09T09:26:17.136Z,2.63
2023-05-09T09:28:44.397Z,3.60
2023-05-09T09:31:25.225Z,2.45
2023-05-09T09:33:52.653Z,3.83
2023-05-09T09:36:30.527Z,6.30
2023-05-09T09:39:02.432Z,6.78
2023-05-09T09:41:37.171Z,4.80
2023-05-09T09:44:12.915Z,5.93
2023-05-09T09:46:55.329Z,8.82
2023-05-09T09:49:25.489Z,4.53
2023-05-09T09:51:58.367Z,5.68
2023-05-09T09:54:27.659Z,4.32
2023-05-09T09:56:55.184Z,4.78
2023-05-09T09:59:25.770Z,9.82
2023-05-09T10:02:07.525Z,4.63
2023-05-09T10:04:39.158Z,3.90
2023-05-09T10:07:08.986Z,12.55
2023-05-09T10:09:38.207Z,13.25
2023-05-09T10:12:07.479Z,5.18
2023-05-09T10:14:36.583Z,6.80
2023-05-09T10:17:05.532Z,7.47
2023-05-09T10:19:33.531Z,10.07
2023-05-09T10:22:08.298Z,6.07
2023-05-09T10:24:48.410Z,3.53
2023-05-09T10:27:21.759Z,5.28
2023-05-09T10:29:56.281Z,7.10
2023-05-09T10:32:52.701Z,4.28
2023-05-09T10:35:26.577Z,3.38
2023-05-09T10:37:59.110Z,2.97
2023-05-09T10:40:28.014Z,5.47
2023-05-09T10:42:55.132Z,6.60
2023-05-09T10:45:23.261Z,7.68
2023-05-09T10:47:53.341Z,6.10
2023-05-09T10:50:21.529Z,5.10
2023-05-09T10:53:04.081Z,3.72
2023-05-09T10:56:00.678Z,3.83
2023-05-09T10:58:30.088Z,4.38
2023-05-09T11:01:00.633Z,3.85
2023-05-09T11:03:29.671Z,6.73
2023-05-09T11:05:58.441Z,4.70
2023-05-09T11:08:30.318Z,4.32
2023-05-09T11:11:03.881Z,6.30
2023-05-09T11:13:32.635Z,4.95
2023-05-09T11:15:59.761Z,4.78
2023-05-09T11:18:26.679Z,6.75
2023-05-09T11:20:54.369Z,6.75
2023-05-09T11:23:26.088Z,7.03
2023-05-09T11:25:54.264Z,2.88
2023-05-09T11:28:32.854Z,2.97
2023-05-09T11:31:16.800Z,2.25
2023-05-09T11:33:47.154Z,4.40
2023-05-09T11:36:20.581Z,7.30
2023-05-09T11:38:48.042Z,8.57
2023-05-09T11:41:16.001Z,6.45
2023-05-09T11:43:45.017Z,5.22
2023-05-09T11:46:12.965Z,4.32
2023-05-09T11:48:42.110Z,4.25
2023-05-09T11:51:17.127Z,4.68
2023-05-09T11:53:50.669Z,4.85
2023-05-09T11:56:18.087Z,5.38
2023-05-09T11:58:46.858Z,4.15
2023-05-09T12:01:14.626Z,6.70
2023-05-09T12:03:45.465Z,3.13
2023-05-09T12:06:20.011Z,7.70
2023-05-09T12:08:47.691Z,4.05
2023-05-09T12:11:15.428Z,2.70
2023-05-09T12:13:50.179Z,5.05
2023-05-09T12:16:19.003Z,6.47
2023-05-09T12:18:54.995Z,4.53
2023-05-09T12:21:23.555Z,3.90
2023-05-09T12:23:52.559Z,3.83
2023-05-09T12:26:22.271Z,3.42
2023-05-09T12:28:50.008Z,7.07
2023-05-09T12:31:18.932Z,5.97
2023-05-09T12:33:46.996Z,2.05
2023-05-09T12:36:15.952Z,5.25
2023-05-09T12:38:54.009Z,2.47
2023-05-09T12:41:37.065Z,4.80
2023-05-09T12:44:07.989Z,8.85
2023-05-09T12:46:37.532Z,3.85
2023-05-09T12:49:05.477Z,4.97
2023-05-09T12:51:33.092Z,5.93
2023-05-09T12:54:05.125Z,4.18
2023-05-09T12:56:35.331Z,5.85
2023-05-09T12:59:02.740Z,4.70
2023-05-09T13:01:30.988Z,2.40
2023-05-09T13:04:03.743Z,6.32
2023-05-09T13:06:31.831Z,9.55
2023-05-09T13:09:06.023Z,2.28
2023-05-09T13:11:33.811Z,2.38
2023-05-09T13:14:02.381Z,3.35
2023-05-09T13:16:29.894Z,3.30
2023-05-09T13:18:56.981Z,5.05
2023-05-09T13:21:24.472Z,3.38
2023-05-09T13:23:52.112Z,4.35
2023-05-09T13:26:19.685Z,10.57
2023-05-09T13:28:46.731Z,1.60
2023-05-09T13:31:15.148Z,9.65
2023-05-09T13:33:42.947Z,4.07
2023-05-09T13:36:10.590Z,4.55
2023-05-09T13:38:40.947Z,5.50
2023-05-09T13:41:08.701Z,4.50
2023-05-09T13:43:36.742Z,5.97
2023-05-09T13:46:04.611Z,6.97
2023-05-09T13:48:31.752Z,8.35
2023-05-09T13:51:00.398Z,3.55
2023-05-09T13:53:27.684Z,4.63
2023-05-09T13:55:55.436Z,6.25
2023-05-09T13:58:22.809Z,2.50
2023-05-09T14:00:50.412Z,3.05
2023-05-09T14:03:17.374Z,2.65
2023-05-09T14:05:45.022Z,4.40
2023-05-09T14:08:12.226Z,7.68
2023-05-09T14:10:40.035Z,3.38
2023-05-09T14:13:08.523Z,3.13
2023-05-09T14:15:36.092Z,3.33
2023-05-09T14:18:03.166Z,2.72
2023-05-09T14:20:30.947Z,3.72
2023-05-09T14:23:00.719Z,4.55
2023-05-09T14:25:28.658Z,5.55
2023-05-09T14:27:55.520Z,4.20
2023-05-09T14:30:23.403Z,8.10
2023-05-09T14:32:50.941Z,4.03
2023-05-09T14:35:18.713Z,5.95
2023-05-09T14:37:46.025Z,3.55
2023-05-09T14:40:13.444Z,3.75
2023-05-09T14:42:41.502Z,8.70
2023-05-09T14:45:12.134Z,7.78
2023-05-09T14:47:41.184Z,3.15
2023-05-09T14:50:11.646Z,5.60
2023-05-09T14:52:38.782Z,7.00
2023-05-09T14:55:07.442Z,5.97
2023-05-09T14:57:34.951Z,4.03
2023-05-09T15:00:16.717Z,4.07
2023-05-09T15:02:48.413Z,7.05
2023-05-09T15:05:16.861Z,3.20
2023-05-09T15:07:44.150Z,4.82
2023-05-09T15:10:11.464Z,4.65
2023-05-09T15:12:38.374Z,3.65
2023-05-09T15:15:16.813Z,4.68
2023-05-09T15:17:45.418Z,3.25
2023-05-09T15:20:15.661Z,5.75
2023-05-09T15:22:44.130Z,3.63
2023-05-09T15:25:11.771Z,7.70
2023-05-09T15:27:39.561Z,4.82
2023-05-09T15:30:08.286Z,4.95
2023-05-09T15:32:38.118Z,4.32
2023-05-09T15:35:07.001Z,2.97
2023-05-09T15:37:35.859Z,2.67
2023-05-09T15:40:03.665Z,5.03
2023-05-09T15:42:31.234Z,3.47
2023-05-09T15:44:58.474Z,8.80
2023-05-09T15:47:26.337Z,2.90
2023-05-09T15:50:00.010Z,8.68
2023-05-09T15:52:28.644Z,2.95
2023-05-09T15:54:58.579Z,5.85
2023-05-09T15:57:27.439Z,3.05
2023-05-09T15:59:56.318Z,8.30
2023-05-09T16:02:25.738Z,3.90
2023-05-09T16:04:59.005Z,5.68
2023-05-09T16:07:27.728Z,4.32
2023-05-09T16:09:56.413Z,7.03
2023-05-09T16:12:25.760Z,4.65
2023-05-09T16:14:53.337Z,4.95
2023-05-09T16:17:20.288Z,5.88
2023-05-09T16:19:47.397Z,4.22
2023-05-09T16:22:14.847Z,6.63
2023-05-09T16:24:42.044Z,5.53
2023-05-09T16:27:09.496Z,6.97
2023-05-09T16:29:36.915Z,4.78
2023-05-09T16:32:04.121Z,5.45
2023-05-09T16:34:32.034Z,5.28
2023-05-09T16:36:59.179Z,5.90
2023-05-09T16:39:28.079Z,7.18
2023-05-09T16:41:55.638Z,2.28
2023-05-09T16:44:25.910Z,4.15
2023-05-09T16:46:53.180Z,4.45
2023-05-09T16:49:21.116Z,5.80
2023-05-09T16:51:48.386Z,6.20
2023-05-09T16:54:16.105Z,7.20
2023-05-09T16:56:43.390Z,2.67
2023-05-09T16:59:10.949Z,3.58
2023-05-09T17:01:38.047Z,5.82
2023-05-09T17:04:07.005Z,3.38
2023-05-09T17:06:36.853Z,4.18
2023-05-09T17:09:05.521Z,3.80
2023-05-09T17:11:33.552Z,2.75
2023-05-09T17:14:02.939Z,4.28
2023-05-09T17:16:30.030Z,3.33
2023-05-09T17:18:57.768Z,11.65
2023-05-09T17:21:25.228Z,6.85
2023-05-09T17:23:54.131Z,7.07
2023-05-09T17:26:21.721Z,7.55
2023-05-09T17:28:49.749Z,4.97
2023-05-09T17:31:16.928Z,8.30
2023-05-09T17:33:44.434Z,4.90
2023-05-09T17:36:11.271Z,5.78
2023-05-09T17:38:38.674Z,4.78
2023-05-09T17:41:05.885Z,5.70
2023-05-09T17:43:33.138Z,8.90
2023-05-09T17:46:01.334Z,4.20
2023-05-09T17:48:29.272Z,5.68
2023-05-09T17:50:56.564Z,5.65
2023-05-09T17:53:24.123Z,5.10
2023-05-09T17:55:51.583Z,7.50
2023-05-09T17:58:19.986Z,7.63
2023-05-09T18:00:47.134Z,6.22
2023-05-09T18:03:14.629Z,4.97
2023-05-09T18:05:41.923Z,7.38
2023-05-09T18:08:09.046Z,7.28
2023-05-09T18:10:36.193Z,6.57
2023-05-09T18:13:03.629Z,7.63
2023-05-09T18:15:31.138Z,6.35
2023-05-09T18:17:59.199Z,7.95
2023-05-09T18:20:26.473Z,9.82
2023-05-09T18:22:54.434Z,8.15
2023-05-09T18:25:21.686Z,6.43
2023-05-09T18:27:49.095Z,9.15
2023-05-09T18:30:16.687Z,9.57
2023-05-09T18:32:44.233Z,4.38
2023-05-09T18:35:12.781Z,8.43
2023-05-09T18:37:40.391Z,12.00
2023-05-09T18:40:10.664Z,7.38
2023-05-09T18:42:38.313Z,6.13
2023-05-09T18:45:05.952Z,8.68
2023-05-09T18:47:33.523Z,8.45
2023-05-09T18:50:12.429Z,12.52
2023-05-09T18:52:40.603Z,7.65
2023-05-09T18:55:07.980Z,10.52
2023-05-09T18:57:35.564Z,8.60
2023-05-09T19:00:03.609Z,9.38
2023-05-09T19:02:31.284Z,9.10
2023-05-09T19:04:58.300Z,6.88
2023-05-09T19:07:26.461Z,12.77
2023-05-09T19:09:53.303Z,19.92
2023-05-09T19:12:21.057Z,13.02
2023-05-09T19:14:48.204Z,13.23
2023-05-09T19:17:15.719Z,9.55
2023-05-09T19:19:42.862Z,11.30
2023-05-09T19:22:10.457Z,9.07
2023-05-09T19:24:37.768Z,8.93
2023-05-09T19:27:06.798Z,11.88
2023-05-09T19:29:34.626Z,17.13
2023-05-09T19:32:02.056Z,13.30
2023-05-09T19:34:30.420Z,8.52
2023-05-09T19:36:57.675Z,14.70
2023-05-09T19:39:24.598Z,10.73
2023-05-09T19:41:52.224Z,16.08
2023-05-09T19:44:19.012Z,14.98
2023-05-09T19:46:46.820Z,18.50
2023-05-09T19:49:17.185Z,11.73
2023-05-09T19:51:45.800Z,15.23
2023-05-09T19:54:14.200Z,10.55
2023-05-09T19:56:41.956Z,13.05
2023-05-09T19:59:08.996Z,10.55
2023-05-09T20:01:36.477Z,12.07
2023-05-09T20:04:03.510Z,15.02
2023-05-09T20:06:31.142Z,10.48
2023-05-09T20:08:58.069Z,12.07
2023-05-09T20:11:25.310Z,27.65
2023-05-09T20:13:52.667Z,13.60
2023-05-09T20:16:21.300Z,15.27
2023-05-09T20:18:50.005Z,13.75
2023-05-09T20:21:18.876Z,15.60
2023-05-09T20:23:46.054Z,15.23
2023-05-09T20:26:13.817Z,12.10
2023-05-09T20:28:41.141Z,10.70
2023-05-09T20:31:08.541Z,16.50
2023-05-09T20:33:35.576Z,13.73
2023-05-09T20:36:03.070Z,11.55
2023-05-09T20:38:29.974Z,11.27
2023-05-09T20:40:57.137Z,18.48
2023-05-09T20:43:24.590Z,23.00
2023-05-09T20:45:52.210Z,13.63
2023-05-09T20:48:22.968Z,17.98
2023-05-09T20:50:50.318Z,12.13
2023-05-09T20:53:17.345Z,12.07
2023-05-09T20:55:44.501Z,11.10
2023-05-09T20:58:14.858Z,15.77
2023-05-09T21:00:42.528Z,14.75
2023-05-09T21:03:10.214Z,16.83
2023-05-09T21:05:37.766Z,16.65
2023-05-09T21:08:05.427Z,17.73
2023-05-09T21:10:33.023Z,17.55
2023-05-09T21:13:00.181Z,12.73
2023-05-09T21:15:27.652Z,13.38
2023-05-09T21:17:55.038Z,20.35
2023-05-09T21:20:22.268Z,21.00
2023-05-09T21:22:49.855Z,12.65
2023-05-09T21:25:18.129Z,11.75
2023-05-09T21:27:45.321Z,12.18
2023-05-09T21:30:12.679Z,14.43
2023-05-09T21:32:39.655Z,12.70
2023-05-09T21:35:11.104Z,25.75
2023-05-09T21:37:38.113Z,18.83
2023-05-09T21:40:06.094Z,14.93
2023-05-09T21:42:33.011Z,12.70
2023-05-09T21:45:00.454Z,14.65
2023-05-09T21:47:27.641Z,16.77
2023-05-09T21:49:55.228Z,13.30
2023-05-09T21:52:23.577Z,16.60
2023-05-09T21:54:51.475Z,15.32
2023-05-09T21:57:18.366Z,14.52
2023-05-09T21:59:45.885Z,19.13
2023-05-09T22:02:13.333Z,16.98
2023-05-09T22:04:41.077Z,19.52
2023-05-09T22:07:07.921Z,18.52
2023-05-09T22:09:35.791Z,14.93
2023-05-09T22:12:02.666Z,15.65
2023-05-09T22:14:30.139Z,15.68
2023-05-09T22:16:57.090Z,20.10
2023-05-09T22:19:25.191Z,15.50
2023-05-09T22:21:52.116Z,16.27
2023-05-09T22:24:19.561Z,20.33
2023-05-09T22:26:46.711Z,18.17
2023-05-09T22:29:16.636Z,15.75
2023-05-09T22:31:44.712Z,20.83
2023-05-09T22:34:11.922Z,20.88
2023-05-09T22:36:38.828Z,20.17
2023-05-09T22:39:06.546Z,19.55
2023-05-09T22:41:33.536Z,17.63
2023-05-09T22:44:00.906Z,19.38
2023-05-09T22:46:28.197Z,19.92
2023-05-09T22:48:55.529Z,14.20
2023-05-09T22:51:22.749Z,13.80
2023-05-09T22:53:49.881Z,17.50
2023-05-09T22:56:17.092Z,20.65
2023-05-09T22:58:44.199Z,19.00
2023-05-09T23:01:11.546Z,19.58
2023-05-09T23:03:38.664Z,18.52
2023-05-09T23:06:06.391Z,20.42
2023-05-09T23:08:34.371Z,18.83
2023-05-09T23:11:01.275Z,15.27
2023-05-09T23:13:28.838Z,18.60
2023-05-09T23:15:55.859Z,14.13
2023-05-09T23:18:23.916Z,17.52
2023-05-09T23:20:51.147Z,15.57
2023-05-09T23:23:18.304Z,18.80
2023-05-09T23:25:49.160Z,18.95
2023-05-09T23:28:28.952Z,18.85
2023-05-09T23:30:59.829Z,15.70
2023-05-09T23:33:35.091Z,14.60
2023-05-09T23:36:06.264Z,18.00
2023-05-09T23:38:41.495Z,15.45
2023-05-09T23:41:12.765Z,15.93
2023-05-09T23:46:18.696Z,17.67
2023-05-09T23:48:53.884Z,14.20
2023-05-09T23:51:24.872Z,21.33
2023-05-09T23:54:00.114Z,17.13
2023-05-09T23:56:31.590Z,15.43
2023-05-09T23:59:06.789Z,15.40
